Time;durP1;ratioP1;P1;durP2;ratioP2;P2;SDS_P1;SDS_P2;PMS_P1;PMS_P2;Temp;Humidity;BMP_temperature;BMP_pressure;BME280_temperature;BME280_humidity;BME280_pressure;Samples;Min_cycle;Max_cycle;Signal;HPM_P1;HPM_P2
2021/11/29 00:00:36;;;;;;;6.15;3.98;;;14.50;83.20;;;;;;1891702;75;21022;-55
2021/11/29 00:03:07;;;;;;;9.28;4.70;;;14.50;83.20;;;;;;1891726;76;21034;-55
2021/11/29 00:05:37;;;;;;;10.80;4.65;;;14.50;83.20;;;;;;1891550;76;21108;-55
2021/11/29 00:08:07;;;;;;;6.90;4.17;;;14.50;83.30;;;;;;1886940;76;21055;-54
2021/11/29 00:10:36;;;;;;;5.72;3.90;;;14.50;83.20;;;;;;1872856;77;21051;-55
2021/11/29 00:13:06;;;;;;;8.93;4.35;;;14.50;83.10;;;;;;1872863;77;21003;-54
2021/11/29 00:15:35;;;;;;;4.72;3.77;;;14.50;83.00;;;;;;1872859;77;21011;-54
2021/11/29 00:18:05;;;;;;;10.38;3.95;;;14.50;83.00;;;;;;1872676;77;21082;-54
2021/11/29 00:20:34;;;;;;;10.03;4.55;;;14.40;82.90;;;;;;1872808;77;21100;-55
2021/11/29 00:23:04;;;;;;;8.95;4.33;;;14.40;82.80;;;;;;1872784;77;21023;-55
2021/11/29 00:25:33;;;;;;;6.78;4.22;;;14.40;82.80;;;;;;1872838;76;21015;-54
2021/11/29 00:28:03;;;;;;;6.40;4.00;;;14.40;82.70;;;;;;1872809;77;21180;-53
2021/11/29 00:30:32;;;;;;;10.53;4.45;;;14.40;82.50;;;;;;1872670;77;21066;-54
2021/11/29 00:33:01;;;;;;;6.03;4.10;;;14.30;82.40;;;;;;1872717;77;21017;-54
2021/11/29 00:35:31;;;;;;;10.55;4.47;;;14.40;82.30;;;;;;1872723;77;21043;-54
2021/11/29 00:38:01;;;;;;;7.40;3.58;;;14.40;82.80;;;;;;1872830;77;21022;-55
2021/11/29 00:40:30;;;;;;;6.33;3.83;;;14.40;82.10;;;;;;1872821;77;21019;-55
2021/11/29 00:43:00;;;;;;;7.33;3.30;;;14.40;81.90;;;;;;1872713;77;21031;-55
2021/11/29 00:45:29;;;;;;;4.50;3.52;;;14.40;81.70;;;;;;1872771;76;21094;-54
2021/11/29 00:47:58;;;;;;;5.80;3.08;;;14.40;81.60;;;;;;1872829;77;20995;-55
2021/11/29 00:50:28;;;;;;;10.15;3.60;;;14.40;81.00;;;;;;1872767;77;21125;-54
2021/11/29 00:52:57;;;;;;;4.85;3.08;;;14.40;81.00;;;;;;1872755;77;20995;-54
2021/11/29 00:55:26;;;;;;;4.58;3.30;;;14.40;81.00;;;;;;1872767;76;21035;-55
2021/11/29 00:57:56;;;;;;;3.65;3.12;;;14.40;80.90;;;;;;1872707;77;21086;-55
2021/11/29 01:00:27;;;;;;;5.97;2.95;;;14.50;80.90;;;;;;1872800;77;21508;-53
2021/11/29 01:02:56;;;;;;;4.37;3.02;;;14.50;80.70;;;;;;1872699;77;21023;-55
2021/11/29 01:05:26;;;;;;;7.35;3.58;;;14.50;80.60;;;;;;1872682;77;21052;-55
2021/11/29 01:07:55;;;;;;;5.22;4.15;;;14.50;80.40;;;;;;1872820;76;21126;-54
2021/11/29 01:10:30;;;;;;;6.25;3.45;;;14.50;80.60;;;;;;1891048;76;21112;-55
2021/11/29 01:12:59;;;;;;;4.15;3.50;;;14.50;80.50;;;;;;1891729;75;21038;-54
2021/11/29 01:15:31;;;;;;;4.58;3.20;;;14.50;80.50;;;;;;1891539;76;21080;-54
2021/11/29 01:18:07;;;;;;;7.55;3.77;;;14.50;80.50;;;;;;1891663;76;20983;-55
2021/11/29 01:20:32;;;;;;;6.12;3.10;;;14.50;80.50;;;;;;1891737;75;21535;-54
2021/11/29 01:23:01;;;;;;;6.40;3.27;;;14.50;80.50;;;;;;1891529;76;21038;-55
2021/11/29 01:25:31;;;;;;;6.20;3.90;;;14.50;80.50;;;;;;1891633;76;21058;-54
2021/11/29 01:28:00;;;;;;;9.88;4.12;;;14.40;80.60;;;;;;1891556;76;21006;-53
2021/11/29 01:30:29;;;;;;;6.08;3.52;;;14.40;80.60;;;;;;1891550;76;21028;-54
2021/11/29 01:32:59;;;;;;;6.10;3.80;;;14.40;80.60;;;;;;1891561;76;21109;-53
2021/11/29 01:35:28;;;;;;;5.95;4.05;;;14.30;80.60;;;;;;1891673;76;21042;-55
2021/11/29 01:37:58;;;;;;;8.05;4.72;;;14.40;80.80;;;;;;1891553;76;21018;-55
2021/11/29 01:40:29;;;;;;;4.42;3.50;;;14.30;80.80;;;;;;1891652;76;21115;-55
2021/11/29 01:43:09;;;;;;;5.62;3.35;;;14.30;80.90;;;;;;1891633;76;21445;-54
2021/11/29 01:45:53;;;;;;;7.97;4.20;;;14.30;81.00;;;;;;1890531;75;21030;-55
2021/11/29 01:48:23;;;;;;;6.25;3.85;;;14.30;81.00;;;;;;1890768;75;21488;-54
2021/11/29 01:50:56;;;;;;;5.72;3.90;;;14.30;81.00;;;;;;1891568;76;21022;-54
2021/11/29 01:53:25;;;;;;;7.70;3.77;;;14.30;81.10;;;;;;1891651;76;21014;-54
2021/11/29 01:55:58;;;;;;;4.67;3.52;;;14.30;81.20;;;;;;1891704;76;21015;-54
2021/11/29 01:58:29;;;;;;;7.75;4.12;;;14.30;81.20;;;;;;1891530;76;21117;-55
2021/11/29 02:01:00;;;;;;;6.53;4.37;;;14.30;81.30;;;;;;1891585;76;20990;-55
2021/11/29 02:03:31;;;;;;;6.05;3.90;;;14.30;81.30;;;;;;1891621;76;21220;-54
2021/11/29 02:06:00;;;;;;;7.80;3.60;;;14.30;81.30;;;;;;1891596;76;20994;-56
2021/11/29 02:08:29;;;;;;;9.08;4.53;;;14.30;81.40;;;;;;1891486;76;21096;-54
2021/11/29 02:10:59;;;;;;;6.83;3.83;;;14.30;81.40;;;;;;1873901;76;21043;-54
2021/11/29 02:13:28;;;;;;;5.78;3.52;;;14.30;81.40;;;;;;1872874;76;21003;-54
2021/11/29 02:15:58;;;;;;;9.00;4.45;;;14.20;81.40;;;;;;1872928;77;20995;-53
2021/11/29 02:18:29;;;;;;;7.72;3.90;;;14.30;81.50;;;;;;1872865;76;21072;-55
2021/11/29 02:21:13;;;;;;;7.55;4.30;;;14.30;81.60;;;;;;1872686;76;21476;-54
2021/11/29 02:23:48;;;;;;;7.85;4.17;;;14.30;81.60;;;;;;1872835;77;21019;-55
2021/11/29 02:26:21;;;;;;;6.87;4.10;;;14.30;81.70;;;;;;1873060;76;21197;-54
2021/11/29 02:28:55;;;;;;;7.20;4.20;;;14.30;81.80;;;;;;1872822;77;21450;-55
2021/11/29 02:31:27;;;;;;;7.70;4.67;;;14.30;81.80;;;;;;1872462;76;21092;-55
2021/11/29 02:33:57;;;;;;;5.83;3.77;;;14.30;81.80;;;;;;1872713;76;21051;-55
2021/11/29 02:36:26;;;;;;;5.45;3.83;;;14.30;81.80;;;;;;1872832;76;20995;-55
2021/11/29 02:38:56;;;;;;;6.80;3.62;;;14.30;81.90;;;;;;1872755;77;21015;-54
2021/11/29 02:41:25;;;;;;;7.28;3.90;;;14.30;81.80;;;;;;1872815;76;21019;-53
2021/11/29 02:43:55;;;;;;;9.33;4.62;;;14.30;81.70;;;;;;1872704;77;21035;-53
2021/11/29 02:46:24;;;;;;;5.70;3.80;;;14.30;81.70;;;;;;1872887;76;21015;-53
2021/11/29 02:48:54;;;;;;;8.30;4.17;;;14.30;81.70;;;;;;1872788;77;21062;-54
2021/11/29 02:51:32;;;;;;;9.03;4.00;;;14.30;81.80;;;;;;1872901;77;21312;-55
2021/11/29 02:54:16;;;;;;;6.75;4.20;;;14.20;81.80;;;;;;1872801;76;20999;-55
2021/11/29 02:56:48;;;;;;;7.42;4.12;;;14.20;81.80;;;;;;1872782;77;21094;-55
2021/11/29 02:59:19;;;;;;;9.20;4.60;;;14.20;81.80;;;;;;1872718;76;21077;-53
2021/11/29 03:01:52;;;;;;;6.35;4.15;;;14.20;81.90;;;;;;1872889;76;21019;-54
2021/11/29 03:04:22;;;;;;;6.80;4.47;;;14.20;81.90;;;;;;1872971;77;21042;-54
2021/11/29 03:06:52;;;;;;;6.75;3.87;;;14.20;81.90;;;;;;1872855;77;21105;-55
2021/11/29 03:09:22;;;;;;;5.42;4.45;;;14.20;81.90;;;;;;1872703;76;21077;-54
2021/11/29 03:11:51;;;;;;;9.20;4.17;;;14.20;82.00;;;;;;1872790;77;21457;-55
2021/11/29 03:14:21;;;;;;;5.12;3.92;;;14.10;82.00;;;;;;1872769;77;20991;-54
2021/11/29 03:16:53;;;;;;;8.65;4.58;;;14.10;82.00;;;;;;1872804;77;21015;-54
2021/11/29 03:19:24;;;;;;;6.20;3.80;;;14.10;82.00;;;;;;1872712;77;21038;-55
2021/11/29 03:21:53;;;;;;;5.90;3.83;;;14.10;81.90;;;;;;1872780;77;21016;-56
2021/11/29 03:24:22;;;;;;;9.78;4.30;;;14.10;81.80;;;;;;1872683;77;21011;-55
2021/11/29 03:26:52;;;;;;;6.65;3.67;;;14.20;81.90;;;;;;1872895;77;21015;-55
2021/11/29 03:29:22;;;;;;;10.00;4.50;;;14.20;81.80;;;;;;1872848;77;21035;-55
2021/11/29 03:31:53;;;;;;;7.03;4.65;;;14.20;81.80;;;;;;1872753;76;21019;-56
2021/11/29 03:34:23;;;;;;;6.58;4.60;;;14.20;81.90;;;;;;1872989;77;21031;-56
2021/11/29 03:36:53;;;;;;;10.23;4.30;;;14.10;81.80;;;;;;1872897;77;21478;-54
2021/11/29 03:39:24;;;;;;;9.18;4.33;;;14.20;81.90;;;;;;1872724;77;21014;-55
2021/11/29 03:41:56;;;;;;;8.58;4.40;;;14.20;81.90;;;;;;1872892;76;21131;-53
2021/11/29 03:44:27;;;;;;;9.13;4.45;;;14.20;82.00;;;;;;1872682;76;21109;-55
2021/11/29 03:46:57;;;;;;;8.58;4.85;;;14.20;82.10;;;;;;1872911;77;21015;-54
2021/11/29 03:49:26;;;;;;;5.45;4.45;;;14.20;82.10;;;;;;1872714;77;21100;-55
2021/11/29 03:51:56;;;;;;;6.83;3.95;;;14.10;82.20;;;;;;1872843;76;21007;-54
2021/11/29 03:54:25;;;;;;;9.85;4.10;;;14.10;82.30;;;;;;1872750;76;21118;-54
2021/11/29 03:56:55;;;;;;;7.22;4.05;;;14.10;82.20;;;;;;1872736;77;21047;-56
2021/11/29 03:59:24;;;;;;;5.67;4.35;;;14.10;82.20;;;;;;1872779;77;21093;-55
2021/11/29 04:01:55;;;;;;;9.85;4.70;;;14.10;82.30;;;;;;1872823;77;21136;-54
2021/11/29 04:04:25;;;;;;;7.15;4.42;;;14.10;82.30;;;;;;1872818;77;21023;-55
2021/11/29 04:06:54;;;;;;;7.58;5.62;;;14.10;82.60;;;;;;1872700;77;21073;-55
2021/11/29 04:09:24;;;;;;;9.08;5.33;;;14.10;82.70;;;;;;1872513;77;21094;-54
2021/11/29 04:11:53;;;;;;;7.20;4.97;;;14.10;82.70;;;;;;1888406;76;21050;-55
2021/11/29 04:14:22;;;;;;;8.85;4.78;;;14.10;82.80;;;;;;1891416;76;21011;-55
2021/11/29 04:16:52;;;;;;;9.93;5.78;;;14.10;82.90;;;;;;1891428;76;21072;-55
2021/11/29 04:19:21;;;;;;;5.70;4.35;;;14.10;83.00;;;;;;1891374;76;21010;-54
2021/11/29 04:21:50;;;;;;;9.53;5.67;;;14.10;83.10;;;;;;1891381;76;21128;-55
2021/11/29 04:24:19;;;;;;;17.82;9.13;;;14.10;83.10;;;;;;1891333;76;21131;-55
2021/11/29 04:26:52;;;;;;;8.63;5.42;;;14.10;83.00;;;;;;1891385;75;21006;-54
2021/11/29 04:29:26;;;;;;;11.57;5.42;;;14.10;83.20;;;;;;1891510;76;21108;-55
2021/11/29 04:31:53;;;;;;;9.50;5.40;;;14.10;83.20;;;;;;1891433;75;21108;-54
2021/11/29 04:34:23;;;;;;;11.18;5.30;;;14.00;83.10;;;;;;1891307;75;21030;-55
2021/11/29 04:36:52;;;;;;;10.90;5.00;;;14.00;83.30;;;;;;1891515;76;21178;-55
2021/11/29 04:39:22;;;;;;;8.48;4.85;;;14.00;83.30;;;;;;1891361;76;21108;-55
2021/11/29 04:41:53;;;;;;;8.80;5.67;;;14.00;83.30;;;;;;1891607;76;21061;-54
2021/11/29 04:44:22;;;;;;;11.03;6.10;;;14.00;83.60;;;;;;1891620;76;21473;-54
2021/11/29 04:46:52;;;;;;;7.80;5.35;;;14.00;83.40;;;;;;1891575;76;21042;-54
2021/11/29 04:49:21;;;;;;;8.45;5.20;;;14.00;83.30;;;;;;1891548;76;21049;-55
2021/11/29 04:51:51;;;;;;;8.25;5.65;;;14.00;83.20;;;;;;1891682;76;21026;-54
2021/11/29 04:54:20;;;;;;;9.43;6.05;;;14.00;83.20;;;;;;1891517;76;21006;-55
2021/11/29 04:56:50;;;;;;;10.23;7.42;;;14.00;83.20;;;;;;1891648;76;21006;-55
2021/11/29 04:59:19;;;;;;;10.95;6.92;;;14.00;83.20;;;;;;1891576;75;21022;-54
2021/11/29 05:01:48;;;;;;;11.15;5.83;;;14.00;83.20;;;;;;1891712;76;21007;-55
2021/11/29 05:04:17;;;;;;;10.48;5.30;;;13.90;83.10;;;;;;1891482;76;21026;-55
2021/11/29 05:06:47;;;;;;;9.15;4.85;;;13.90;83.20;;;;;;1891670;76;21072;-53
2021/11/29 05:09:16;;;;;;;7.40;4.78;;;14.00;83.30;;;;;;1891611;76;21026;-54
2021/11/29 05:11:45;;;;;;;8.43;5.12;;;14.00;83.20;;;;;;1881676;76;21184;-54
2021/11/29 05:14:15;;;;;;;8.15;5.92;;;14.00;83.10;;;;;;1872719;77;21156;-53
2021/11/29 05:16:44;;;;;;;15.00;6.83;;;14.10;83.10;;;;;;1872747;77;21015;-54
2021/11/29 05:19:13;;;;;;;10.32;5.70;;;14.10;83.00;;;;;;1872730;76;21043;-54
2021/11/29 05:21:43;;;;;;;11.03;6.12;;;14.10;83.10;;;;;;1872879;76;21113;-54
2021/11/29 05:24:13;;;;;;;8.33;5.47;;;14.10;83.00;;;;;;1872786;77;21026;-54
2021/11/29 05:26:43;;;;;;;9.88;5.40;;;14.20;83.10;;;;;;1872828;77;21517;-54
2021/11/29 05:29:17;;;;;;;8.13;6.00;;;14.20;83.10;;;;;;1872732;77;21015;-54
2021/11/29 05:31:44;;;;;;;6.85;4.60;;;14.30;83.10;;;;;;1872576;76;21516;-54
2021/11/29 05:34:13;;;;;;;5.22;4.42;;;14.40;83.00;;;;;;1872863;76;21019;-46
2021/11/29 05:36:43;;;;;;;11.08;6.28;;;14.40;82.80;;;;;;1872887;77;21933;-46
2021/11/29 05:39:17;;;;;;;8.83;5.47;;;14.50;82.80;;;;;;1872780;76;21114;-47
2021/11/29 05:41:47;;;;;;;10.55;5.37;;;14.50;82.80;;;;;;1872889;77;21043;-47
2021/11/29 05:44:17;;;;;;;11.78;6.15;;;14.60;82.80;;;;;;1872800;76;21082;-47
2021/11/29 05:46:47;;;;;;;13.80;5.45;;;14.60;82.80;;;;;;1872869;76;21047;-46
2021/11/29 05:49:16;;;;;;;9.40;5.15;;;14.70;82.80;;;;;;1872680;77;21055;-46
2021/11/29 05:51:45;;;;;;;8.95;5.75;;;14.80;82.80;;;;;;1872858;77;21113;-46
2021/11/29 05:54:15;;;;;;;8.93;5.70;;;14.80;82.60;;;;;;1872741;76;21063;-46
2021/11/29 05:56:44;;;;;;;7.92;5.65;;;14.90;82.50;;;;;;1872877;77;21062;-47
2021/11/29 05:59:13;;;;;;;9.83;4.87;;;15.00;82.30;;;;;;1872860;77;21022;-47
2021/11/29 06:01:42;;;;;;;9.13;5.60;;;15.00;82.20;;;;;;1872883;76;20979;-54
2021/11/29 06:04:11;;;;;;;11.50;6.22;;;15.20;82.20;;;;;;1872816;77;21020;-51
2021/11/29 06:06:42;;;;;;;8.83;5.50;;;15.20;82.00;;;;;;1872828;77;21035;-53
2021/11/29 06:09:11;;;;;;;8.15;4.78;;;15.30;81.90;;;;;;1872733;77;21045;-54
2021/11/29 06:11:41;;;;;;;9.43;5.25;;;15.30;81.60;;;;;;1872688;75;21050;-53
2021/11/29 06:14:10;;;;;;;7.47;3.70;;;15.40;81.50;;;;;;1872715;76;21024;-53
2021/11/29 06:16:40;;;;;;;9.90;4.12;;;15.40;81.00;;;;;;1872684;77;21069;-50
2021/11/29 06:19:09;;;;;;;6.65;4.65;;;15.50;80.30;;;;;;1872723;77;21027;-52
2021/11/29 06:21:39;;;;;;;7.75;4.20;;;15.50;79.90;;;;;;1872791;77;21043;-52
2021/11/29 06:24:08;;;;;;;10.13;4.30;;;15.60;80.00;;;;;;1872732;77;21027;-53
2021/11/29 06:26:37;;;;;;;3.85;3.35;;;15.60;79.50;;;;;;1872690;77;21026;-52
2021/11/29 06:29:07;;;;;;;6.10;4.15;;;15.70;78.70;;;;;;1872674;77;21097;-50
2021/11/29 06:31:36;;;;;;;11.40;4.47;;;15.80;78.80;;;;;;1872695;77;21027;-51
2021/11/29 06:34:06;;;;;;;4.53;3.60;;;15.80;78.70;;;;;;1872682;76;21015;-51
2021/11/29 06:36:35;;;;;;;7.03;4.42;;;15.90;78.30;;;;;;1872584;76;21093;-50
2021/11/29 06:39:05;;;;;;;9.35;4.60;;;15.90;78.10;;;;;;1872582;77;21075;-50
2021/11/29 06:41:35;;;;;;;11.35;3.90;;;15.90;78.10;;;;;;1872596;77;21087;-49
2021/11/29 06:44:06;;;;;;;7.62;4.22;;;15.90;78.00;;;;;;1872638;77;21074;-52
2021/11/29 06:46:35;;;;;;;6.70;4.67;;;16.00;77.70;;;;;;1872740;77;21136;-50
2021/11/29 06:49:05;;;;;;;5.92;4.65;;;16.00;77.70;;;;;;1872720;77;21050;-52
2021/11/29 06:51:34;;;;;;;9.35;5.47;;;16.00;77.70;;;;;;1872686;77;21307;-53
2021/11/29 06:54:05;;;;;;;9.20;4.95;;;16.00;77.60;;;;;;1872834;77;21067;-50
2021/11/29 06:56:35;;;;;;;5.12;3.80;;;16.10;77.60;;;;;;1872772;77;21120;-51
2021/11/29 06:59:04;;;;;;;5.67;4.17;;;16.10;77.20;;;;;;1872776;77;21044;-53
2021/11/29 07:01:33;;;;;;;5.58;3.72;;;16.20;76.80;;;;;;1872788;77;21019;-51
2021/11/29 07:04:03;;;;;;;7.17;4.53;;;16.30;76.60;;;;;;1872683;77;21035;-51
2021/11/29 07:06:33;;;;;;;6.08;3.83;;;16.30;76.10;;;;;;1872826;76;21019;-51
2021/11/29 07:09:03;;;;;;;7.10;4.50;;;16.30;75.60;;;;;;1872912;77;21015;-53
2021/11/29 07:11:33;;;;;;;8.53;4.37;;;16.40;75.80;;;;;;1872779;76;21081;-52
2021/11/29 07:14:04;;;;;;;7.90;4.25;;;16.40;75.70;;;;;;1890992;76;21050;-53
2021/11/29 07:16:38;;;;;;;5.78;4.50;;;16.40;75.30;;;;;;1891466;76;20987;-53
2021/11/29 07:19:07;;;;;;;9.33;5.03;;;16.50;75.50;;;;;;1891443;76;20987;-53
2021/11/29 07:21:36;;;;;;;8.25;5.42;;;16.50;75.30;;;;;;1891449;76;21014;-52
2021/11/29 07:24:06;;;;;;;9.80;4.53;;;16.50;75.20;;;;;;1891500;75;21062;-53
2021/11/29 07:26:36;;;;;;;9.13;4.47;;;16.50;75.20;;;;;;1891476;76;21018;-54
2021/11/29 07:29:06;;;;;;;6.03;4.60;;;16.60;74.60;;;;;;1891484;75;21077;-51
2021/11/29 07:31:35;;;;;;;8.23;4.58;;;16.60;74.80;;;;;;1891385;76;21045;-52
2021/11/29 07:34:05;;;;;;;342.98;316.60;;;16.70;74.70;;;;;;1891363;76;21315;-49
2021/11/29 07:36:35;;;;;;;189.57;172.10;;;16.70;73.90;;;;;;1889900;76;21184;-54
2021/11/29 07:39:06;;;;;;;21.90;18.45;;;16.80;73.40;;;;;;1890795;76;21078;-50
2021/11/29 07:41:35;;;;;;;9.25;5.10;;;16.90;73.10;;;;;;1890605;76;21069;-57
2021/11/29 07:44:06;;;;;;;11.73;6.00;;;17.00;73.30;;;;;;1889114;76;21073;-53
2021/11/29 07:46:35;;;;;;;9.48;3.80;;;17.10;72.10;;;;;;1889297;76;21139;-53
2021/11/29 07:49:05;;;;;;;13.68;7.45;;;17.10;70.70;;;;;;1889686;75;21337;-54
2021/11/29 07:51:34;;;;;;;38.17;21.37;;;17.10;70.50;;;;;;1889774;76;21390;-51
2021/11/29 07:54:05;;;;;;;9.65;6.28;;;17.20;70.60;;;;;;1893306;74;21099;-52
2021/11/29 07:56:34;;;;;;;9.43;4.67;;;17.20;70.70;;;;;;1923133;74;21138;-49
2021/11/29 07:59:03;;;;;;;8.68;4.47;;;17.20;70.00;;;;;;1922670;74;21022;-50
2021/11/29 08:01:33;;;;;;;9.48;4.03;;;17.30;70.10;;;;;;1923509;74;21031;-53
2021/11/29 08:04:02;;;;;;;73.90;51.95;;;17.30;69.50;;;;;;1923586;74;21163;-53
2021/11/29 08:06:31;;;;;;;25.70;12.25;;;17.40;69.40;;;;;;1923582;74;21106;-55
2021/11/29 08:09:01;;;;;;;16.27;10.55;;;17.40;69.10;;;;;;1923616;74;21034;-54
2021/11/29 08:11:30;;;;;;;11.45;6.65;;;17.40;69.00;;;;;;1923768;74;21023;-50
2021/11/29 08:14:00;;;;;;;32.95;6.17;;;17.40;69.00;;;;;;1909847;74;21075;-49
2021/11/29 08:16:29;;;;;;;7.72;4.03;;;17.50;67.30;;;;;;1880225;75;21030;-49
2021/11/29 08:18:58;;;;;;;33.42;14.30;;;17.60;67.90;;;;;;1871827;76;21031;-53
2021/11/29 08:21:28;;;;;;;47.85;37.17;;;17.60;68.20;;;;;;1871993;77;21468;-48
2021/11/29 08:23:57;;;;;;;12.85;7.35;;;17.70;68.00;;;;;;1859691;77;21082;-51
2021/11/29 08:26:28;;;;;;;11.33;5.42;;;17.80;67.60;;;;;;1872003;77;21160;-50
2021/11/29 08:28:58;;;;;;;6.80;4.65;;;17.80;67.60;;;;;;1871978;77;21091;-54
2021/11/29 08:31:27;;;;;;;28.30;26.02;;;17.80;67.10;;;;;;1883485;75;21015;-49
2021/11/29 08:33:57;;;;;;;24.18;13.00;;;17.80;67.50;;;;;;1875525;75;21006;-54
2021/11/29 08:36:26;;;;;;;12.45;9.65;;;17.80;67.60;;;;;;1871777;76;21120;-47
2021/11/29 08:38:56;;;;;;;22.35;17.35;;;17.90;67.10;;;;;;1871806;77;21228;-49
2021/11/29 08:41:26;;;;;;;58.63;52.45;;;17.90;66.50;;;;;;1871835;76;21089;-47
2021/11/29 08:43:56;;;;;;;10.13;6.47;;;18.00;66.80;;;;;;1871901;76;21089;-48
2021/11/29 08:46:25;;;;;;;11.33;6.12;;;18.00;66.80;;;;;;1897017;75;21132;-49
2021/11/29 08:48:55;;;;;;;13.88;12.47;;;18.00;66.00;;;;;;1902351;75;21079;-49
2021/11/29 08:51:25;;;;;;;31.12;16.97;;;18.10;65.90;;;;;;1877546;75;21031;-51
2021/11/29 08:53:54;;;;;;;16.90;9.70;;;18.10;65.80;;;;;;1902475;75;21118;-47
2021/11/29 08:56:24;;;;;;;27.27;17.25;;;18.10;65.30;;;;;;1902234;75;21074;-47
2021/11/29 08:58:53;;;;;;;13.32;7.12;;;18.10;65.40;;;;;;1902644;75;21090;-47
2021/11/29 09:01:23;;;;;;;10.78;5.22;;;18.20;64.90;;;;;;1902570;75;21115;-46
2021/11/29 09:03:53;;;;;;;10.88;7.35;;;18.20;64.80;;;;;;1878970;75;21009;-49
2021/11/29 09:06:22;;;;;;;43.20;20.52;;;18.20;64.60;;;;;;1871960;77;21032;-46
2021/11/29 09:08:52;;;;;;;13.95;8.18;;;18.20;64.40;;;;;;1872103;77;21088;-55
2021/11/29 09:11:21;;;;;;;8.10;6.17;;;18.20;64.20;;;;;;1871896;77;21077;-53
2021/11/29 09:13:51;;;;;;;8.43;5.37;;;18.20;64.80;;;;;;1871897;75;21143;-57
2021/11/29 09:16:21;;;;;;;9.53;5.10;;;18.20;64.40;;;;;;1872093;77;21084;-48
2021/11/29 09:18:51;;;;;;;34.85;27.27;;;18.20;64.50;;;;;;1871753;77;21103;-53
2021/11/29 09:21:22;;;;;;;32.93;22.45;;;18.20;64.60;;;;;;1872153;76;21121;-52
2021/11/29 09:23:51;;;;;;;35.68;24.72;;;18.20;64.10;;;;;;1872087;77;21150;-49
2021/11/29 09:26:21;;;;;;;14.47;7.58;;;18.30;64.00;;;;;;1871493;75;21045;-50
2021/11/29 09:28:50;;;;;;;9.53;6.53;;;18.30;64.10;;;;;;1871936;75;21143;-48
2021/11/29 09:31:20;;;;;;;10.00;5.12;;;18.40;63.80;;;;;;1872116;76;20997;-46
2021/11/29 09:33:49;;;;;;;10.70;7.08;;;18.40;63.00;;;;;;1872139;77;21107;-49
2021/11/29 09:36:19;;;;;;;23.98;14.53;;;18.50;63.40;;;;;;1872120;77;21033;-46
2021/11/29 09:38:49;;;;;;;57.25;23.38;;;18.50;63.60;;;;;;1872243;77;21076;-46
2021/11/29 09:41:21;;;;;;;12.47;6.78;;;18.50;63.50;;;;;;1871940;77;21111;-48
2021/11/29 09:43:49;;;;;;;13.80;6.47;;;18.50;63.70;;;;;;1871493;75;21046;-49
2021/11/29 09:46:19;;;;;;;10.80;6.70;;;18.40;63.80;;;;;;1872013;75;21035;-46
2021/11/29 09:48:48;;;;;;;10.75;6.10;;;18.40;63.70;;;;;;1903743;75;21008;-45
2021/11/29 09:51:17;;;;;;;9.65;5.50;;;18.40;64.00;;;;;;1904390;75;21063;-46
2021/11/29 09:53:47;;;;;;;15.53;10.25;;;18.40;63.80;;;;;;1904312;75;21089;-50
2021/11/29 09:56:16;;;;;;;15.78;12.95;;;18.40;63.90;;;;;;1904398;74;21070;-46
2021/11/29 09:58:47;;;;;;;29.12;18.55;;;18.40;63.90;;;;;;1904564;75;21019;-47
2021/11/29 10:01:18;;;;;;;10.30;7.45;;;18.50;63.80;;;;;;1904496;75;21075;-48
2021/11/29 10:03:47;;;;;;;11.00;7.20;;;18.50;63.90;;;;;;1904447;74;21078;-48
2021/11/29 10:06:17;;;;;;;14.58;9.93;;;18.50;63.40;;;;;;1904460;75;21117;-52
2021/11/29 10:08:46;;;;;;;43.87;20.08;;;18.50;63.70;;;;;;1904545;75;21055;-48
2021/11/29 10:11:17;;;;;;;26.90;16.67;;;18.50;63.70;;;;;;1904601;75;21447;-49
2021/11/29 10:13:53;;;;;;;18.50;10.95;;;18.50;63.40;;;;;;1906442;74;21136;-49
2021/11/29 10:16:30;;;;;;;27.02;18.82;;;18.50;63.60;;;;;;1923535;74;21023;-47
2021/11/29 10:18:59;;;;;;;11.03;7.58;;;18.50;63.70;;;;;;1921165;74;21155;-49
2021/11/29 10:21:30;;;;;;;10.90;6.87;;;18.60;63.60;;;;;;1922981;74;21155;-48
2021/11/29 10:24:02;;;;;;;10.05;6.25;;;18.60;63.30;;;;;;1922824;74;21105;-47
2021/11/29 10:26:34;;;;;;;26.25;17.50;;;18.60;63.60;;;;;;1923409;74;21014;-48
2021/11/29 10:29:12;;;;;;;31.50;11.12;;;18.50;63.60;;;;;;1875730;74;21073;-45
2021/11/29 10:31:47;;;;;;;16.77;15.08;;;18.50;63.70;;;;;;1923336;74;21148;-45
2021/11/29 10:34:23;;;;;;;12.03;7.50;;;18.60;63.60;;;;;;1923727;74;21132;-45
2021/11/29 10:36:55;;;;;;;17.48;7.20;;;18.60;63.50;;;;;;1923823;74;21047;-45
2021/11/29 10:39:27;;;;;;;26.97;15.28;;;18.70;63.40;;;;;;1924140;74;21105;-46
2021/11/29 10:42:02;;;;;;;56.25;33.23;;;18.70;63.30;;;;;;1923957;74;21014;-47
2021/11/29 10:44:31;;;;;;;;;;;18.80;63.20;;;;;;1926809;74;21143;-47
2021/11/29 10:47:03;;;;;;;11.88;7.78;;;18.80;62.00;;;;;;1923934;74;20179;-46
2021/11/29 10:49:37;;;;;;;12.70;6.85;;;18.80;62.80;;;;;;1923968;74;20975;-45
2021/11/29 10:52:06;;;;;;;11.43;6.10;;;18.90;62.90;;;;;;1923840;74;20991;-46
2021/11/29 10:54:38;;;;;;;6.95;5.53;;;18.80;62.80;;;;;;1924000;74;21156;-47
2021/11/29 10:57:08;;;;;;;12.10;6.17;;;18.80;63.00;;;;;;1892619;74;21028;-46
2021/11/29 10:59:39;;;;;;;14.35;6.87;;;18.80;63.10;;;;;;1890857;76;21169;-52
2021/11/29 11:02:30;;;;;;;9.05;5.50;;;18.80;63.10;;;;;;1890811;76;21148;-50
2021/11/29 11:05:10;;;;;;;6.62;4.83;;;18.80;62.70;;;;;;1855159;75;21042;-46
2021/11/29 11:07:40;;;;;;;10.35;5.22;;;18.70;62.60;;;;;;1890783;76;21165;-45
2021/11/29 11:10:17;;;;;;;10.68;6.53;;;18.70;62.70;;;;;;1890847;76;21115;-46
2021/11/29 11:12:44;;;;;;;9.78;5.47;;;18.60;63.00;;;;;;1889982;75;21123;-45
2021/11/29 11:15:17;;;;;;;11.53;5.10;;;18.60;62.80;;;;;;1890911;75;21100;-45
2021/11/29 11:17:53;;;;;;;7.62;5.58;;;18.50;62.90;;;;;;1890771;76;21075;-46
2021/11/29 11:20:23;;;;;;;8.88;5.83;;;18.50;62.90;;;;;;1890707;76;21027;-46
2021/11/29 11:22:55;;;;;;;23.20;7.58;;;18.50;63.10;;;;;;1890951;76;21071;-45
2021/11/29 11:25:26;;;;;;;15.68;5.97;;;18.50;62.70;;;;;;1890835;76;21542;-45
2021/11/29 11:27:58;;;;;;;11.50;5.22;;;18.50;62.60;;;;;;1890225;75;21325;-47
2021/11/29 11:30:33;;;;;;;8.60;4.70;;;18.50;62.60;;;;;;1890853;76;21032;-47
2021/11/29 11:33:06;;;;;;;14.95;8.48;;;18.50;62.60;;;;;;1891033;76;21501;-48
2021/11/29 11:35:37;;;;;;;14.03;5.62;;;18.50;63.30;;;;;;1890653;75;21174;-47
2021/11/29 11:38:10;;;;;;;17.12;6.03;;;18.40;62.30;;;;;;1890956;76;21044;-45
2021/11/29 11:40:42;;;;;;;8.25;5.67;;;18.50;62.60;;;;;;1890274;75;21016;-45
2021/11/29 11:43:14;;;;;;;9.55;5.22;;;18.50;62.70;;;;;;1890681;76;21052;-45
2021/11/29 11:45:46;;;;;;;12.98;9.28;;;18.50;62.60;;;;;;1890918;76;21036;-47
2021/11/29 11:48:17;;;;;;;24.15;13.48;;;18.50;62.70;;;;;;1890687;76;21079;-46
2021/11/29 11:50:49;;;;;;;16.23;9.63;;;18.40;62.90;;;;;;1890710;76;21067;-47
2021/11/29 11:53:18;;;;;;;25.30;13.50;;;18.40;63.10;;;;;;1890886;76;21004;-46
2021/11/29 11:55:49;;;;;;;11.20;5.33;;;18.40;63.10;;;;;;1890673;76;21086;-46
2021/11/29 11:58:21;;;;;;;10.43;6.08;;;18.40;62.70;;;;;;1890933;76;21020;-48
2021/11/29 12:00:53;;;;;;;11.35;8.10;;;18.40;62.80;;;;;;1890809;76;21095;-46
2021/11/29 12:03:34;;;;;;;10.68;6.33;;;18.40;62.80;;;;;;1890214;75;21517;-48
2021/11/29 12:06:08;;;;;;;33.63;14.63;;;18.40;62.60;;;;;;1890867;76;21047;-50
2021/11/29 12:08:49;;;;;;;14.60;8.08;;;18.40;62.60;;;;;;1891194;76;21651;-49
2021/11/29 12:11:31;;;;;;;14.28;5.65;;;18.40;62.70;;;;;;1890793;76;21470;-45
2021/11/29 12:14:18;;;;;;;7.47;5.55;;;18.40;62.70;;;;;;1891650;76;21004;-48
2021/11/29 12:16:56;;;;;;;8.25;4.92;;;18.30;62.80;;;;;;1891438;76;21087;-53
2021/11/29 12:19:37;;;;;;;9.90;5.25;;;18.40;62.60;;;;;;1891615;76;21004;-51
2021/11/29 12:22:20;;;;;;;20.52;13.85;;;18.30;62.50;;;;;;1890336;75;21102;-52
2021/11/29 12:24:55;;;;;;;56.25;28.40;;;18.30;62.60;;;;;;1891438;76;21122;-53
2021/11/29 12:27:23;;;;;;;12.70;7.67;;;18.30;62.70;;;;;;1891498;76;21099;-52
2021/11/29 12:29:57;;;;;;;11.78;6.10;;;18.30;63.20;;;;;;1891485;76;21040;-54
2021/11/29 12:32:27;;;;;;;9.05;4.92;;;18.30;63.30;;;;;;1891588;76;21036;-54
2021/11/29 12:34:59;;;;;;;10.45;6.12;;;18.30;63.50;;;;;;1891598;76;21146;-52
2021/11/29 12:37:44;;;;;;;9.33;4.95;;;18.20;63.70;;;;;;1891567;76;21040;-52
2021/11/29 12:40:14;;;;;;;;;;;18.20;64.00;;;;;;1894404;76;21118;-53
2021/11/29 12:42:46;;;;;;;13.25;7.62;;;18.10;64.10;;;;;;1891421;76;20482;-53
2021/11/29 12:45:20;;;;;;;13.35;7.33;;;18.00;64.30;;;;;;1891523;76;21015;-50
2021/11/29 12:48:00;;;;;;;20.52;10.45;;;18.00;64.20;;;;;;1891504;76;21036;-50
2021/11/29 12:50:35;;;;;;;11.45;7.37;;;18.00;64.20;;;;;;1891468;76;21008;-49
2021/11/29 12:53:16;;;;;;;8.95;5.90;;;18.00;64.30;;;;;;1891634;76;20980;-51
2021/11/29 12:55:51;;;;;;;15.28;8.10;;;17.90;63.70;;;;;;1891463;76;21497;-53
2021/11/29 12:58:22;;;;;;;10.40;6.75;;;18.00;63.80;;;;;;1891473;76;21012;-47